createdAt,value
2018-10-07T19:03:50.225Z,33.73
2018-10-07T19:06:18.429Z,34.67
2018-10-07T19:08:46.635Z,32.17
2018-10-07T19:11:14.825Z,33.50
2018-10-07T19:13:43.049Z,33.73
2018-10-07T19:18:16.578Z,35.60
2018-10-07T19:20:44.876Z,33.57
2018-10-07T19:23:13.311Z,34.63
2018-10-07T19:25:41.548Z,41.33
2018-10-07T19:28:09.734Z,30.03
2018-10-07T19:30:37.986Z,36.73
2018-10-07T19:33:06.225Z,30.17
2018-10-07T19:35:34.449Z,34.90
2018-10-07T19:38:02.645Z,36.87
2018-10-07T19:40:30.840Z,35.60
2018-10-07T19:42:59.049Z,39.07
2018-10-07T19:45:27.295Z,32.97
2018-10-07T19:47:55.415Z,31.47
2018-10-07T19:50:23.625Z,33.60
2018-10-07T19:52:51.991Z,33.40
2018-10-07T19:55:20.161Z,29.43
2018-10-07T19:57:48.397Z,28.73
2018-10-07T20:00:16.623Z,35.57
2018-10-07T20:02:44.859Z,30.20
2018-10-07T20:05:13.121Z,29.90
2018-10-07T20:07:41.322Z,32.57
2018-10-07T20:10:09.549Z,27.43
2018-10-07T20:12:37.748Z,45.53
2018-10-07T20:15:06.017Z,29.97
2018-10-07T20:17:34.321Z,32.77
2018-10-07T20:20:02.581Z,33.83
2018-10-07T20:22:30.797Z,30.27
2018-10-07T20:24:59.009Z,31.50
2018-10-07T20:27:27.253Z,29.20
2018-10-07T20:29:55.453Z,33.10
2018-10-07T20:32:23.717Z,28.07
2018-10-07T20:34:51.913Z,32.73
2018-10-07T20:37:20.145Z,34.37
2018-10-07T20:39:48.337Z,32.43
2018-10-07T20:42:16.624Z,36.50
2018-10-07T20:44:44.845Z,30.60
2018-10-07T20:47:13.100Z,32.97
2018-10-07T20:49:41.365Z,36.23
2018-10-07T20:52:09.595Z,33.90
2018-10-07T20:54:37.817Z,32.73
2018-10-07T20:57:06.084Z,34.90
2018-10-07T20:59:34.308Z,30.33
2018-10-07T21:02:02.557Z,41.57
2018-10-07T21:04:30.749Z,37.90
2018-10-07T21:06:58.978Z,32.80
2018-10-07T21:09:27.217Z,38.17
2018-10-07T21:11:55.486Z,39.33
2018-10-07T21:14:23.758Z,35.30
2018-10-07T21:16:52.022Z,36.97
2018-10-07T21:19:20.205Z,35.43
2018-10-07T21:21:48.460Z,34.27
2018-10-07T21:24:16.707Z,32.43
2018-10-07T21:26:44.940Z,36.90
2018-10-07T21:29:13.148Z,39.43
2018-10-07T21:31:41.371Z,36.93
2018-10-07T21:34:09.590Z,35.83
2018-10-07T21:36:37.845Z,36.37
2018-10-07T21:39:07.506Z,36.67
2018-10-07T21:41:35.781Z,36.33
2018-10-07T21:44:04.001Z,31.40
2018-10-07T21:46:32.234Z,36.47
2018-10-07T21:49:00.429Z,39.63
2018-10-07T21:51:28.662Z,37.50
2018-10-07T21:53:56.897Z,36.60
2018-10-07T21:56:25.137Z,40.03
2018-10-07T21:58:53.380Z,41.07
2018-10-07T22:01:21.641Z,37.30
2018-10-07T22:03:49.824Z,37.60
2018-10-07T22:06:18.033Z,49.17
2018-10-07T22:08:46.409Z,36.93
2018-10-07T22:11:14.682Z,45.70
2018-10-07T22:13:42.920Z,60.57
2018-10-07T22:16:11.137Z,42.73
2018-10-07T22:18:39.336Z,40.13
2018-10-07T22:21:07.556Z,42.83
2018-10-07T22:23:35.792Z,47.73
2018-10-07T22:26:03.979Z,43.50
2018-10-07T22:28:32.181Z,42.17
2018-10-07T22:31:00.525Z,53.30
2018-10-07T22:33:28.744Z,46.80
2018-10-07T22:35:56.970Z,48.70
2018-10-07T22:38:25.174Z,46.87
2018-10-07T22:40:53.376Z,44.97
2018-10-07T22:43:21.598Z,48.43
2018-10-07T22:45:50.037Z,50.27
2018-10-07T22:48:18.244Z,43.00
2018-10-07T22:50:46.516Z,44.77
2018-10-07T22:53:14.722Z,54.03
2018-10-07T22:55:42.913Z,49.33
2018-10-07T22:58:11.101Z,47.37
2018-10-07T23:00:39.325Z,61.00
2018-10-07T23:03:07.553Z,49.37
2018-10-07T23:05:35.797Z,53.17
2018-10-07T23:08:04.032Z,48.30
2018-10-07T23:10:32.245Z,50.87
2018-10-07T23:13:00.454Z,46.97
2018-10-07T23:15:28.648Z,49.07
2018-10-07T23:17:56.872Z,48.77
2018-10-07T23:20:25.101Z,48.10
2018-10-07T23:22:53.351Z,53.80
2018-10-07T23:25:21.713Z,50.40
2018-10-07T23:27:49.949Z,52.87
2018-10-07T23:30:18.141Z,55.03
2018-10-07T23:32:46.345Z,56.10
2018-10-07T23:35:14.532Z,56.00
2018-10-07T23:37:42.740Z,65.33
2018-10-07T23:40:10.947Z,53.73
2018-10-07T23:42:39.165Z,53.70
2018-10-07T23:45:07.363Z,61.80
2018-10-07T23:47:35.561Z,55.60
2018-10-07T23:50:03.757Z,54.40
2018-10-07T23:52:31.956Z,56.17
2018-10-07T23:55:00.188Z,57.20
2018-10-07T23:57:28.395Z,56.80
2018-10-07T23:59:56.589Z,65.53
